Time;durP1;ratioP1;P1;durP2;ratioP2;P2;SDS_P1;SDS_P2;PMS_P1;PMS_P2;Temp;Humidity;BMP_temperature;BMP_pressure;BME280_temperature;BME280_humidity;BME280_pressure;Samples;Min_cycle;Max_cycle;Signal;HPM_P1;HPM_P2
2021/07/31 00:01:08;;;;;;;14.95;10.68;;;16.50;99.90;;;;;;4973487;28;20550;-78
2021/07/31 00:03:35;;;;;;;14.68;10.57;;;16.40;99.90;;;;;;4973799;28;20023;-77
2021/07/31 00:06:01;;;;;;;12.85;10.48;;;16.40;99.90;;;;;;4973715;28;20034;-77
2021/07/31 00:08:28;;;;;;;15.60;11.25;;;16.50;99.90;;;;;;4988747;28;20023;-77
2021/07/31 00:10:54;;;;;;;13.77;11.18;;;16.40;99.90;;;;;;5003000;28;20123;-77
2021/07/31 00:13:20;;;;;;;13.50;10.30;;;16.50;99.90;;;;;;4991787;28;20046;-77
2021/07/31 00:15:46;;;;;;;15.80;10.85;;;16.50;99.90;;;;;;4993086;28;20030;-78
2021/07/31 00:18:11;;;;;;;16.75;9.90;;;16.50;99.90;;;;;;4991896;28;20034;-77
2021/07/31 00:20:37;;;;;;;10.68;8.93;;;16.40;99.90;;;;;;4991754;28;20027;-78
2021/07/31 00:23:04;;;;;;;12.40;9.38;;;16.50;99.90;;;;;;4989268;28;20057;-78
2021/07/31 00:25:29;;;;;;;12.13;9.80;;;16.50;99.90;;;;;;4992274;28;20557;-78
2021/07/31 00:27:55;;;;;;;14.40;9.63;;;16.50;99.90;;;;;;4991494;28;20022;-77
2021/07/31 00:30:24;;;;;;;15.45;9.75;;;16.40;99.90;;;;;;4991565;28;20361;-79
2021/07/31 00:32:50;;;;;;;11.32;9.18;;;16.50;99.90;;;;;;4992643;28;20038;-77
2021/07/31 00:35:16;;;;;;;16.95;10.35;;;16.50;99.90;;;;;;4991346;28;20147;-78
2021/07/31 00:37:42;;;;;;;13.23;9.35;;;16.40;99.90;;;;;;4991332;28;20121;-78
2021/07/31 00:40:08;;;;;;;13.27;9.68;;;16.50;99.90;;;;;;4991932;28;20041;-79
2021/07/31 00:42:36;;;;;;;12.48;9.40;;;16.50;99.90;;;;;;4991409;28;20026;-77
2021/07/31 00:45:02;;;;;;;11.57;9.48;;;16.60;99.90;;;;;;4991314;28;20035;-77
2021/07/31 00:47:27;;;;;;;10.55;8.88;;;16.60;99.90;;;;;;4992571;28;20030;-77
2021/07/31 00:49:53;;;;;;;13.70;9.10;;;16.70;99.90;;;;;;4991259;28;20019;-78
2021/07/31 00:52:19;;;;;;;13.55;10.05;;;16.70;99.90;;;;;;4992428;28;20487;-77
2021/07/31 00:54:45;;;;;;;14.88;9.85;;;16.70;99.90;;;;;;4992582;28;20026;-77
2021/07/31 00:57:13;;;;;;;11.95;9.35;;;16.70;99.90;;;;;;4992237;28;20061;-77
2021/07/31 00:59:39;;;;;;;13.07;9.75;;;16.70;99.90;;;;;;4991182;28;20030;-77
2021/07/31 01:02:05;;;;;;;14.48;9.27;;;16.70;99.90;;;;;;4992257;28;20026;-78
2021/07/31 01:04:31;;;;;;;9.65;8.68;;;16.70;99.90;;;;;;4992509;28;20018;-78
2021/07/31 01:06:56;;;;;;;13.27;9.05;;;16.60;99.90;;;;;;4990939;28;20079;-77
2021/07/31 01:09:22;;;;;;;14.43;8.88;;;16.70;99.90;;;;;;4987268;28;20503;-78
2021/07/31 01:11:48;;;;;;;13.80;9.77;;;16.70;99.90;;;;;;4972675;28;20023;-77
2021/07/31 01:14:13;;;;;;;13.20;10.05;;;16.80;99.90;;;;;;4971471;28;20023;-77
2021/07/31 01:16:39;;;;;;;12.30;9.98;;;16.80;99.90;;;;;;4987538;28;20077;-77
2021/07/31 01:19:05;;;;;;;14.07;9.85;;;16.80;99.90;;;;;;4972609;28;20034;-78
2021/07/31 01:21:42;;;;;;;14.85;10.05;;;16.80;99.90;;;;;;4972617;28;20035;-77
2021/07/31 01:24:09;;;;;;;10.13;8.93;;;16.80;99.90;;;;;;4971199;28;20034;-77
2021/07/31 01:26:43;;;;;;;12.60;9.50;;;16.80;99.90;;;;;;4972550;28;20026;-77
2021/07/31 01:29:10;;;;;;;9.05;8.02;;;16.70;99.90;;;;;;4972277;28;20075;-77
2021/07/31 01:31:36;;;;;;;13.68;10.18;;;16.70;99.90;;;;;;4972405;28;20035;-77
2021/07/31 01:34:03;;;;;;;16.75;11.95;;;16.60;99.90;;;;;;4972419;28;20033;-77
2021/07/31 01:36:30;;;;;;;12.65;10.15;;;16.50;99.90;;;;;;4972386;28;20027;-77
2021/07/31 01:38:59;;;;;;;15.75;11.05;;;16.50;99.90;;;;;;4972117;28;20488;-77
2021/07/31 01:41:25;;;;;;;12.77;9.77;;;16.50;99.90;;;;;;4987024;28;20033;-77
2021/07/31 01:43:52;;;;;;;13.35;9.10;;;16.50;99.90;;;;;;4972324;28;20499;-78
2021/07/31 01:46:19;;;;;;;10.40;8.23;;;16.50;99.90;;;;;;4972275;28;20084;-77
2021/07/31 01:48:44;;;;;;;11.07;9.23;;;16.40;99.90;;;;;;4972163;28;20057;-77
2021/07/31 01:51:10;;;;;;;14.65;10.65;;;16.30;99.90;;;;;;4972139;28;20019;-78
2021/07/31 01:53:36;;;;;;;10.93;8.95;;;16.20;99.90;;;;;;4972115;28;20114;-77
2021/07/31 01:56:02;;;;;;;11.48;8.30;;;16.20;99.90;;;;;;4972114;28;20035;-78
2021/07/31 01:58:27;;;;;;;11.25;9.43;;;16.20;99.90;;;;;;4970723;28;20070;-77
2021/07/31 02:00:54;;;;;;;12.68;9.95;;;16.10;99.90;;;;;;4987486;28;20492;-77
2021/07/31 02:03:20;;;;;;;13.55;9.82;;;16.10;99.90;;;;;;4990207;28;20056;-77
2021/07/31 02:05:46;;;;;;;15.02;9.70;;;16.20;99.90;;;;;;5006144;28;20019;-78
2021/07/31 02:08:12;;;;;;;13.68;10.35;;;16.20;99.90;;;;;;5006349;28;20026;-77
2021/07/31 02:10:37;;;;;;;11.02;9.45;;;16.20;99.90;;;;;;4990140;28;20605;-78
2021/07/31 02:13:03;;;;;;;16.25;11.23;;;16.30;99.90;;;;;;4991117;28;20102;-78
2021/07/31 02:15:29;;;;;;;13.55;10.05;;;16.30;99.90;;;;;;4990131;28;20382;-78
2021/07/31 02:17:55;;;;;;;13.55;9.68;;;16.30;99.90;;;;;;4989709;28;20087;-77
2021/07/31 02:20:21;;;;;;;13.48;9.93;;;16.30;99.90;;;;;;4989217;28;20032;-78
2021/07/31 02:22:47;;;;;;;11.82;9.27;;;16.40;99.90;;;;;;4991316;28;20018;-77
2021/07/31 02:25:12;;;;;;;9.50;8.27;;;16.40;99.90;;;;;;4991085;28;20474;-79
2021/07/31 02:27:38;;;;;;;9.43;7.57;;;16.40;99.90;;;;;;4991091;28;20036;-77
2021/07/31 02:30:04;;;;;;;12.85;7.90;;;16.30;99.90;;;;;;4993047;28;20046;-78
2021/07/31 02:32:30;;;;;;;8.75;7.93;;;16.20;99.90;;;;;;4970459;28;20540;-77
2021/07/31 02:34:56;;;;;;;11.93;7.57;;;16.20;99.90;;;;;;4971396;28;20061;-78
2021/07/31 02:37:21;;;;;;;11.07;9.00;;;16.10;99.90;;;;;;4970084;28;20062;-77
2021/07/31 02:39:47;;;;;;;11.80;8.63;;;16.10;99.90;;;;;;4971375;28;20023;-77
2021/07/31 02:42:13;;;;;;;12.48;9.88;;;16.20;99.90;;;;;;4970253;28;20076;-77
2021/07/31 02:44:38;;;;;;;14.00;9.57;;;16.20;99.90;;;;;;4971451;28;20100;-78
2021/07/31 02:47:04;;;;;;;12.07;8.77;;;16.20;99.90;;;;;;4970061;28;20427;-77
2021/07/31 02:49:30;;;;;;;14.70;9.68;;;16.20;99.90;;;;;;4985712;28;20026;-77
2021/07/31 02:51:55;;;;;;;12.70;9.75;;;16.20;99.90;;;;;;4990423;28;20495;-77
2021/07/31 02:54:21;;;;;;;11.82;8.95;;;16.10;99.90;;;;;;4989452;28;20067;-78
2021/07/31 02:56:47;;;;;;;19.02;9.63;;;16.10;99.90;;;;;;4989230;28;20018;-77
2021/07/31 02:59:12;;;;;;;13.73;10.10;;;16.10;99.90;;;;;;4985005;28;20031;-78
2021/07/31 03:01:38;;;;;;;12.60;10.80;;;16.00;99.90;;;;;;4986250;28;20205;-77
2021/07/31 03:04:04;;;;;;;12.10;9.40;;;16.10;99.90;;;;;;4971092;28;20034;-77
2021/07/31 03:06:29;;;;;;;15.32;10.60;;;16.10;99.90;;;;;;4970070;28;20038;-77
2021/07/31 03:08:55;;;;;;;11.75;9.40;;;16.10;99.90;;;;;;4969869;28;20023;-79
2021/07/31 03:11:22;;;;;;;13.43;9.77;;;16.10;99.90;;;;;;4971150;28;20033;-78
2021/07/31 03:13:47;;;;;;;13.43;9.95;;;16.20;99.90;;;;;;4971262;28;20473;-78
2021/07/31 03:16:13;;;;;;;12.68;10.38;;;16.20;99.90;;;;;;4969049;28;20027;-77
2021/07/31 03:18:39;;;;;;;14.55;11.15;;;16.20;99.90;;;;;;4970861;28;20050;-77
2021/07/31 03:21:04;;;;;;;12.93;9.68;;;16.30;99.90;;;;;;4970910;28;20472;-79
2021/07/31 03:23:30;;;;;;;13.60;9.38;;;16.20;99.90;;;;;;4969677;28;20058;-77
2021/07/31 03:25:57;;;;;;;13.90;10.50;;;16.20;99.90;;;;;;4969641;28;20027;-78
2021/07/31 03:28:24;;;;;;;12.10;8.88;;;16.10;99.90;;;;;;4986680;28;20023;-78
2021/07/31 03:30:49;;;;;;;15.27;9.10;;;16.20;99.90;;;;;;4988438;28;20035;-78
2021/07/31 03:33:15;;;;;;;11.07;8.50;;;16.20;99.90;;;;;;4991939;28;20010;-77
2021/07/31 03:35:42;;;;;;;11.40;9.75;;;16.20;99.90;;;;;;4993618;28;20487;-77
2021/07/31 03:38:09;;;;;;;12.18;10.00;;;16.20;99.90;;;;;;4984650;28;20068;-77
2021/07/31 03:40:35;;;;;;;14.07;10.20;;;16.20;99.90;;;;;;4992392;28;20057;-77
2021/07/31 03:43:38;;;;;;;17.55;10.23;;;16.10;99.90;;;;;;4993437;28;20026;-77
2021/07/31 03:46:07;;;;;;;14.05;9.70;;;16.10;99.90;;;;;;4993522;28;20101;-76
2021/07/31 03:48:33;;;;;;;10.65;9.40;;;16.10;99.90;;;;;;4992194;28;20026;-77
2021/07/31 03:50:58;;;;;;;16.17;9.07;;;16.10;99.90;;;;;;4992115;28;20023;-77
2021/07/31 03:53:24;;;;;;;13.60;9.88;;;16.20;99.90;;;;;;4993186;28;20105;-77
2021/07/31 03:55:50;;;;;;;14.52;10.43;;;16.20;99.90;;;;;;4992060;28;20022;-78
2021/07/31 03:58:16;;;;;;;11.68;10.10;;;16.30;99.90;;;;;;4991920;28;20035;-77
2021/07/31 04:00:42;;;;;;;13.32;9.27;;;16.40;99.90;;;;;;4976521;28;20035;-79
2021/07/31 04:03:09;;;;;;;14.05;10.43;;;16.70;99.90;;;;;;4973524;28;20069;-77
2021/07/31 04:05:39;;;;;;;12.15;9.63;;;16.80;99.90;;;;;;4973813;28;20023;-77
2021/07/31 04:08:05;;;;;;;12.88;9.45;;;17.10;99.90;;;;;;4973602;28;20081;-77
2021/07/31 04:10:30;;;;;;;13.57;9.32;;;17.30;99.90;;;;;;4972544;28;20088;-79
2021/07/31 04:12:57;;;;;;;12.77;8.90;;;17.60;99.90;;;;;;4973551;28;20393;-77
2021/07/31 04:15:22;;;;;;;12.93;9.70;;;17.80;99.90;;;;;;4972503;28;20473;-77
2021/07/31 04:17:48;;;;;;;11.15;8.75;;;18.10;99.90;;;;;;4972154;28;20031;-77
2021/07/31 04:20:14;;;;;;;11.00;8.73;;;18.30;99.90;;;;;;4973558;28;20058;-78
2021/07/31 04:22:39;;;;;;;13.25;9.68;;;18.40;99.90;;;;;;4973485;28;20383;-77
2021/07/31 04:25:06;;;;;;;11.48;8.50;;;18.40;99.90;;;;;;4972172;28;20027;-77
2021/07/31 04:27:33;;;;;;;12.68;8.70;;;18.50;99.90;;;;;;4973024;28;20110;-77
2021/07/31 04:29:59;;;;;;;10.77;9.23;;;18.40;99.90;;;;;;4973613;28;20029;-77
2021/07/31 04:32:25;;;;;;;12.68;8.65;;;18.40;99.90;;;;;;4972100;28;20500;-77
2021/07/31 04:34:50;;;;;;;13.38;10.07;;;18.30;99.90;;;;;;4973269;28;20026;-78
2021/07/31 04:37:16;;;;;;;15.82;10.23;;;18.30;99.90;;;;;;4988031;28;20027;-77
2021/07/31 04:39:42;;;;;;;13.95;8.98;;;18.40;99.90;;;;;;4988379;28;20122;-77
2021/07/31 04:42:07;;;;;;;12.38;9.75;;;18.50;99.90;;;;;;4972654;28;20110;-78
2021/07/31 04:44:33;;;;;;;13.05;9.30;;;18.60;99.90;;;;;;4972003;28;20113;-78
2021/07/31 04:46:59;;;;;;;15.90;9.32;;;18.70;99.90;;;;;;4971841;28;20027;-77
2021/07/31 04:49:25;;;;;;;9.13;8.23;;;18.80;99.90;;;;;;4971943;28;20019;-78
2021/07/31 04:51:50;;;;;;;14.60;9.68;;;18.90;99.90;;;;;;4971731;28;20027;-77
2021/07/31 04:54:16;;;;;;;11.18;9.68;;;19.00;99.90;;;;;;4971860;28;20015;-78
2021/07/31 04:56:43;;;;;;;13.55;9.25;;;19.10;99.90;;;;;;4971725;28;20034;-77
2021/07/31 04:59:08;;;;;;;12.52;9.13;;;19.20;99.90;;;;;;4980212;28;20061;-78
2021/07/31 05:01:34;;;;;;;11.32;8.73;;;19.30;99.90;;;;;;5007582;28;20564;-77
2021/07/31 05:04:00;;;;;;;12.23;8.77;;;19.40;99.90;;;;;;4992315;28;20422;-77
2021/07/31 05:06:25;;;;;;;12.57;9.00;;;19.50;99.90;;;;;;5007293;28;20027;-77
2021/07/31 05:08:51;;;;;;;12.40;10.15;;;19.70;99.90;;;;;;4991054;28;20034;-77
2021/07/31 05:11:21;;;;;;;11.50;9.02;;;19.80;99.90;;;;;;4992220;28;20018;-78
2021/07/31 05:13:48;;;;;;;13.73;9.10;;;19.90;99.90;;;;;;4990842;28;20022;-77
2021/07/31 05:16:18;;;;;;;9.80;8.38;;;20.10;99.90;;;;;;4990935;28;20033;-78
2021/07/31 05:18:44;;;;;;;12.05;8.20;;;20.10;99.90;;;;;;4991939;28;20047;-79
2021/07/31 05:21:10;;;;;;;11.52;9.70;;;20.30;99.90;;;;;;4992049;28;20034;-77
2021/07/31 05:23:38;;;;;;;13.48;9.18;;;20.40;99.90;;;;;;4992336;28;20100;-77
2021/07/31 05:26:08;;;;;;;8.50;7.53;;;20.60;99.90;;;;;;4990369;28;20071;-78
2021/07/31 05:28:34;;;;;;;9.38;7.93;;;20.70;99.90;;;;;;4972817;28;20100;-78
2021/07/31 05:31:00;;;;;;;12.88;8.40;;;20.90;99.90;;;;;;4972436;28;20468;-78
2021/07/31 05:33:25;;;;;;;8.85;7.85;;;21.00;99.90;;;;;;4972446;28;20023;-78
2021/07/31 05:35:52;;;;;;;9.95;8.18;;;21.20;99.90;;;;;;4972356;28;20027;-79
2021/07/31 05:38:17;;;;;;;10.40;7.72;;;21.20;99.90;;;;;;4972668;28;20039;-78
2021/07/31 05:40:43;;;;;;;10.30;9.15;;;21.20;99.90;;;;;;4972315;28;20168;-79
2021/07/31 05:43:09;;;;;;;12.18;9.13;;;21.20;99.90;;;;;;4972126;28;20035;-77
2021/07/31 05:45:34;;;;;;;10.05;8.00;;;21.30;99.90;;;;;;4971125;28;20023;-78
2021/07/31 05:48:00;;;;;;;10.88;7.57;;;21.30;99.90;;;;;;4972125;28;20116;-77
2021/07/31 05:50:26;;;;;;;9.93;8.85;;;21.20;99.90;;;;;;4972220;28;20026;-79
2021/07/31 05:52:52;;;;;;;11.70;8.18;;;21.20;99.90;;;;;;4970762;28;20126;-77
2021/07/31 05:55:17;;;;;;;13.85;9.38;;;21.20;99.90;;;;;;4971143;28;20027;-77
2021/07/31 05:57:43;;;;;;;11.32;8.82;;;21.30;99.90;;;;;;4972212;28;20400;-77
2021/07/31 06:00:09;;;;;;;14.10;9.32;;;21.30;98.20;;;;;;4987026;28;20026;-77
2021/07/31 06:02:36;;;;;;;13.50;8.82;;;21.30;98.60;;;;;;4971102;28;20096;-77
2021/07/31 06:05:01;;;;;;;15.45;9.30;;;21.30;98.40;;;;;;4971933;28;20031;-79
2021/07/31 06:07:27;;;;;;;14.80;9.80;;;21.30;93.20;;;;;;4971856;28;20035;-77
2021/07/31 06:09:55;;;;;;;19.92;10.30;;;21.40;94.70;;;;;;4971464;28;20473;-77
2021/07/31 06:12:22;;;;;;;11.40;8.50;;;21.40;93.90;;;;;;4989066;28;20484;-77
2021/07/31 06:14:48;;;;;;;10.88;9.60;;;21.50;95.70;;;;;;4970591;28;20023;-78
2021/07/31 06:17:14;;;;;;;10.75;9.25;;;21.50;94.70;;;;;;4970331;28;20018;-78
2021/07/31 06:19:41;;;;;;;14.55;10.10;;;21.70;95.20;;;;;;4970602;28;20500;-78
2021/07/31 06:22:07;;;;;;;11.27;9.65;;;21.60;94.00;;;;;;4971620;28;20023;-78
2021/07/31 06:24:33;;;;;;;13.15;9.52;;;21.60;92.30;;;;;;4978571;28;20152;-77
2021/07/31 06:26:58;;;;;;;11.15;9.20;;;21.70;94.20;;;;;;4987765;28;20117;-77
2021/07/31 06:29:24;;;;;;;13.35;9.52;;;21.70;92.90;;;;;;4990620;28;20057;-78
2021/07/31 06:31:51;;;;;;;12.13;9.30;;;21.70;93.80;;;;;;4985667;28;20022;-77
2021/07/31 06:34:17;;;;;;;13.82;10.25;;;21.70;93.30;;;;;;4981897;28;20097;-78
2021/07/31 06:36:43;;;;;;;12.27;9.82;;;21.70;95.20;;;;;;4979822;28;20498;-77
2021/07/31 06:39:09;;;;;;;16.48;10.70;;;21.70;92.70;;;;;;4978954;28;20117;-77
2021/07/31 06:41:35;;;;;;;18.20;10.45;;;21.60;92.50;;;;;;4979342;28;20022;-77
2021/07/31 06:44:01;;;;;;;15.38;10.07;;;21.70;93.60;;;;;;4977836;28;20045;-77
2021/07/31 06:46:27;;;;;;;14.38;10.48;;;21.80;94.50;;;;;;4980533;28;20395;-77
2021/07/31 06:48:53;;;;;;;13.95;10.05;;;21.90;95.00;;;;;;4989130;28;20175;-77
2021/07/31 06:51:20;;;;;;;15.07;10.20;;;22.00;93.60;;;;;;4990440;28;20451;-77
2021/07/31 06:53:50;;;;;;;16.33;10.43;;;22.20;92.70;;;;;;4990465;28;20018;-77
2021/07/31 06:56:16;;;;;;;18.58;11.02;;;22.20;92.80;;;;;;4988691;28;20054;-77
2021/07/31 06:58:42;;;;;;;13.93;10.20;;;22.30;91.00;;;;;;4989909;28;20030;-77
2021/07/31 07:01:15;;;;;;;19.40;11.35;;;22.40;90.70;;;;;;4996422;28;20023;-78
2021/07/31 07:03:42;;;;;;;14.80;11.38;;;22.50;90.70;;;;;;4989870;28;20022;-77
2021/07/31 07:06:09;;;;;;;16.05;10.55;;;22.50;90.70;;;;;;4991197;28;20022;-78
2021/07/31 07:08:35;;;;;;;15.95;10.45;;;22.50;89.60;;;;;;4993841;28;20039;-77
2021/07/31 07:11:02;;;;;;;14.35;10.45;;;22.40;88.20;;;;;;4991830;28;20464;-78
2021/07/31 07:13:28;;;;;;;13.32;10.18;;;22.50;89.40;;;;;;4993721;28;20018;-76
2021/07/31 07:15:54;;;;;;;14.70;9.90;;;22.50;90.50;;;;;;4998585;28;20014;-76
2021/07/31 07:18:20;;;;;;;12.88;9.98;;;22.70;89.30;;;;;;4985721;28;20037;-76
2021/07/31 07:20:46;;;;;;;14.55;10.13;;;22.80;88.80;;;;;;4972412;28;20022;-77
2021/07/31 07:23:12;;;;;;;12.43;9.88;;;22.90;89.70;;;;;;4973706;28;20065;-76
2021/07/31 07:25:41;;;;;;;13.13;10.00;;;22.90;89.30;;;;;;4973708;28;20031;-76
2021/07/31 07:28:07;;;;;;;13.20;10.52;;;23.00;90.20;;;;;;4972136;28;20058;-76
2021/07/31 07:30:32;;;;;;;13.52;9.70;;;23.00;86.90;;;;;;4990929;28;20034;-76
2021/07/31 07:32:58;;;;;;;12.32;9.32;;;23.10;87.70;;;;;;4992215;28;20456;-76
2021/07/31 07:35:23;;;;;;;13.07;8.93;;;23.10;84.90;;;;;;4991219;28;20031;-78
2021/07/31 07:37:49;;;;;;;13.38;9.23;;;23.10;82.70;;;;;;4983401;28;20078;-77
2021/07/31 07:40:15;;;;;;;12.45;8.95;;;23.10;83.30;;;;;;4991840;28;20377;-77
2021/07/31 07:42:41;;;;;;;11.23;8.75;;;23.10;82.40;;;;;;4999864;28;20080;-77
2021/07/31 07:45:08;;;;;;;12.38;8.52;;;23.20;83.80;;;;;;4971675;28;20035;-77
2021/07/31 07:47:35;;;;;;;11.48;8.98;;;23.30;83.30;;;;;;4971641;28;20022;-77
2021/07/31 07:50:02;;;;;;;18.05;9.07;;;23.60;81.70;;;;;;4971797;28;20035;-77
2021/07/31 07:52:27;;;;;;;12.48;8.20;;;23.80;81.00;;;;;;4971630;28;20076;-77
2021/07/31 07:54:53;;;;;;;10.95;8.13;;;24.20;80.70;;;;;;4972973;28;20419;-77
2021/07/31 07:57:19;;;;;;;11.15;7.95;;;24.40;75.50;;;;;;4973495;28;20041;-77
2021/07/31 07:59:44;;;;;;;10.75;8.38;;;24.40;76.00;;;;;;4973435;28;20178;-78
2021/07/31 08:02:10;;;;;;;14.23;7.75;;;24.50;76.10;;;;;;4973215;28;20015;-77
2021/07/31 08:04:36;;;;;;;11.95;7.70;;;24.60;76.90;;;;;;4972324;28;20023;-77
2021/07/31 08:07:02;;;;;;;12.23;7.70;;;24.60;71.30;;;;;;4972247;28;20038;-77
2021/07/31 08:09:28;;;;;;;10.50;6.88;;;24.60;71.80;;;;;;4973594;28;20027;-79
2021/07/31 08:11:54;;;;;;;8.40;7.53;;;24.40;71.50;;;;;;4980757;28;20031;-77
2021/07/31 08:14:19;;;;;;;9.77;7.68;;;24.30;72.10;;;;;;4992652;28;20164;-78
2021/07/31 08:16:45;;;;;;;10.38;7.55;;;24.20;73.10;;;;;;4992457;28;20033;-78
2021/07/31 08:19:11;;;;;;;10.60;7.25;;;24.30;74.70;;;;;;5007230;28;20030;-79
2021/07/31 08:21:40;;;;;;;9.55;7.28;;;24.50;75.00;;;;;;5007802;28;20029;-78
2021/07/31 08:24:07;;;;;;;17.17;6.93;;;24.40;74.30;;;;;;4991407;28;20026;-78
2021/07/31 08:26:33;;;;;;;13.10;7.45;;;24.50;73.80;;;;;;4991233;28;20035;-78
2021/07/31 08:28:58;;;;;;;8.60;7.05;;;24.60;75.00;;;;;;4992356;28;20030;-78
2021/07/31 08:31:24;;;;;;;9.35;7.30;;;24.50;73.70;;;;;;4992499;28;20027;-78
2021/07/31 08:33:50;;;;;;;9.82;7.10;;;24.40;73.90;;;;;;4990793;28;20418;-79
2021/07/31 08:36:15;;;;;;;9.43;7.43;;;24.50;74.40;;;;;;4996287;28;20049;-78
2021/07/31 08:38:41;;;;;;;7.03;6.32;;;24.50;74.80;;;;;;4971688;28;20395;-78
2021/07/31 08:41:07;;;;;;;7.80;5.95;;;24.50;76.30;;;;;;4973264;28;20027;-78
2021/07/31 08:43:33;;;;;;;7.53;6.75;;;24.60;73.90;;;;;;4972548;28;20034;-77
2021/07/31 08:46:06;;;;;;;9.88;6.47;;;24.50;72.00;;;;;;4971402;28;20023;-79
2021/07/31 08:48:32;;;;;;;10.30;6.68;;;24.50;73.20;;;;;;4971636;28;20035;-78
2021/07/31 08:51:01;;;;;;;7.80;6.28;;;24.60;72.50;;;;;;4971536;28;20026;-77
2021/07/31 08:53:30;;;;;;;7.05;6.22;;;24.50;72.30;;;;;;4988205;28;20040;-77
2021/07/31 08:55:56;;;;;;;9.07;6.85;;;24.50;71.90;;;;;;4989310;28;20026;-78
2021/07/31 08:58:25;;;;;;;9.27;5.90;;;24.50;72.80;;;;;;4989990;28;20052;-77
2021/07/31 09:00:56;;;;;;;7.38;6.57;;;24.50;74.80;;;;;;4990188;28;20033;-77
2021/07/31 09:03:22;;;;;;;7.53;6.43;;;24.40;74.60;;;;;;4998374;28;20018;-77
2021/07/31 09:05:48;;;;;;;7.57;6.88;;;24.40;76.60;;;;;;4987401;28;20398;-77
2021/07/31 09:08:15;;;;;;;7.50;6.80;;;24.40;79.00;;;;;;4991609;28;20022;-78
2021/07/31 09:10:43;;;;;;;7.35;6.50;;;24.40;76.70;;;;;;4991704;28;20105;-78
2021/07/31 09:13:12;;;;;;;8.38;6.15;;;24.40;76.80;;;;;;4990096;28;20034;-78
2021/07/31 09:15:42;;;;;;;8.15;6.38;;;24.40;76.80;;;;;;4992115;28;20482;-76
2021/07/31 09:18:26;;;;;;;7.60;6.80;;;24.50;76.90;;;;;;4985334;28;20117;-77
2021/07/31 09:21:00;;;;;;;7.97;7.07;;;24.40;75.20;;;;;;4970296;28;20049;-79
2021/07/31 09:23:53;;;;;;;8.93;6.72;;;24.60;78.00;;;;;;4983453;28;20026;-78
2021/07/31 09:26:25;;;;;;;7.47;6.60;;;24.60;78.00;;;;;;4987030;28;20032;-77
2021/07/31 09:29:06;;;;;;;7.07;6.35;;;24.50;77.60;;;;;;4978274;28;20023;-77
2021/07/31 09:31:32;;;;;;;6.78;5.82;;;24.50;77.70;;;;;;4984796;28;20092;-77
2021/07/31 09:34:02;;;;;;;8.05;6.00;;;24.60;77.20;;;;;;4971434;28;20045;-78
2021/07/31 09:36:40;;;;;;;5.65;5.13;;;24.50;74.70;;;;;;4980281;28;20439;-77
2021/07/31 09:39:09;;;;;;;7.15;5.47;;;24.40;73.50;;;;;;4990864;28;20035;-78
2021/07/31 09:41:37;;;;;;;5.90;5.40;;;24.50;75.80;;;;;;4989727;28;20533;-79
2021/07/31 09:44:04;;;;;;;5.55;5.05;;;24.50;74.80;;;;;;4975520;28;20396;-79
2021/07/31 09:46:34;;;;;;;7.07;5.35;;;24.50;77.50;;;;;;4970821;28;20018;-84
2021/07/31 09:49:02;;;;;;;6.68;5.32;;;24.60;74.90;;;;;;4983728;28;20026;-86
2021/07/31 09:51:35;;;;;;;6.15;5.55;;;24.60;74.00;;;;;;5006035;28;20030;-86
2021/07/31 09:54:03;;;;;;;7.00;5.82;;;24.70;73.40;;;;;;4972084;28;20022;-84
2021/07/31 09:56:40;;;;;;;6.72;6.13;;;24.70;73.00;;;;;;4989216;28;20075;-86
2021/07/31 09:59:07;;;;;;;6.28;5.68;;;24.70;73.90;;;;;;4981308;28;20056;-86
2021/07/31 10:01:36;;;;;;;9.93;5.90;;;24.70;73.10;;;;;;4988094;28;20389;-86
2021/07/31 10:04:03;;;;;;;6.20;5.57;;;24.70;73.10;;;;;;4983027;28;20483;-85
2021/07/31 10:06:33;;;;;;;7.25;6.15;;;24.80;73.20;;;;;;4986837;28;20495;-85
2021/07/31 10:09:02;;;;;;;6.10;5.20;;;24.90;72.10;;;;;;4975086;28;20106;-84
2021/07/31 10:11:28;;;;;;;7.00;6.10;;;25.10;71.30;;;;;;4970370;28;20453;-83
2021/07/31 10:13:59;;;;;;;8.95;7.00;;;25.10;68.70;;;;;;4973409;28;20023;-83
2021/07/31 10:16:25;;;;;;;7.55;6.53;;;25.10;70.40;;;;;;4986678;28;20126;-84
2021/07/31 10:19:05;;;;;;;8.20;6.88;;;25.10;68.60;;;;;;4989221;28;20071;-82
2021/07/31 10:21:35;;;;;;;7.32;6.57;;;25.10;69.30;;;;;;4987011;28;20022;-83
2021/07/31 10:24:06;;;;;;;7.45;5.72;;;25.10;70.50;;;;;;4989694;28;20014;-84
2021/07/31 10:26:34;;;;;;;7.10;6.45;;;25.30;68.70;;;;;;4987916;28;20109;-84
2021/07/31 10:29:27;;;;;;;6.82;6.22;;;25.50;69.50;;;;;;4988546;28;20030;-83
2021/07/31 10:32:22;;;;;;;7.20;6.20;;;25.50;70.60;;;;;;4988471;28;20049;-84
2021/07/31 10:35:02;;;;;;;8.55;7.15;;;25.50;69.00;;;;;;4987040;28;20077;-83
2021/07/31 10:37:29;;;;;;;7.47;6.75;;;25.50;69.60;;;;;;4985081;28;20034;-83
2021/07/31 10:39:55;;;;;;;7.97;5.78;;;25.50;69.40;;;;;;4987107;28;20041;-83
2021/07/31 10:42:21;;;;;;;9.65;7.18;;;25.40;68.50;;;;;;4974915;28;20084;-84
2021/07/31 10:45:17;;;;;;;9.60;7.65;;;25.50;69.70;;;;;;4971531;28;20148;-83
2021/07/31 10:47:48;;;;;;;11.07;6.60;;;25.70;70.30;;;;;;4970229;28;20038;-83
2021/07/31 10:50:26;;;;;;;7.57;6.18;;;25.70;68.80;;;;;;4970090;28;20389;-83
2021/07/31 10:53:00;;;;;;;6.72;6.10;;;25.80;69.00;;;;;;4986187;28;20027;-83
2021/07/31 10:55:35;;;;;;;6.25;5.65;;;25.80;67.60;;;;;;4986298;28;20050;-83
2021/07/31 10:58:11;;;;;;;7.13;6.47;;;25.80;68.70;;;;;;4969564;28;20038;-84
2021/07/31 11:00:40;;;;;;;7.43;6.47;;;25.80;67.50;;;;;;4987880;28;20040;-84
2021/07/31 11:03:14;;;;;;;8.90;6.32;;;25.90;67.00;;;;;;4985392;28;20076;-83
2021/07/31 11:05:51;;;;;;;8.75;6.80;;;25.90;66.60;;;;;;4985959;28;20118;-84
2021/07/31 11:08:30;;;;;;;8.48;6.60;;;26.00;65.20;;;;;;4971075;28;20079;-84
2021/07/31 11:10:57;;;;;;;8.00;6.28;;;26.20;66.70;;;;;;4985831;28;20084;-84
2021/07/31 11:13:23;;;;;;;8.40;6.78;;;26.20;66.80;;;;;;4970562;28;20023;-84
2021/07/31 11:16:04;;;;;;;6.65;5.97;;;26.40;64.30;;;;;;4970901;28;20106;-84
2021/07/31 11:18:35;;;;;;;9.00;6.28;;;26.40;64.10;;;;;;4988527;28;20084;-85
2021/07/31 11:21:15;;;;;;;7.55;6.13;;;26.30;61.80;;;;;;4989779;28;20495;-85
2021/07/31 11:23:43;;;;;;;8.45;6.55;;;26.30;63.00;;;;;;4988749;28;20061;-85
2021/07/31 11:26:09;;;;;;;9.30;6.35;;;26.20;63.40;;;;;;4988242;28;20034;-84
2021/07/31 11:28:38;;;;;;;8.57;5.97;;;26.30;65.10;;;;;;4988475;28;20483;-84
2021/07/31 11:31:17;;;;;;;6.82;6.22;;;26.40;63.00;;;;;;4989868;28;20471;-84
2021/07/31 11:34:08;;;;;;;9.90;6.15;;;26.20;63.00;;;;;;4988832;28;20031;-84
2021/07/31 11:36:41;;;;;;;7.57;6.32;;;26.10;61.80;;;;;;4988977;28;20019;-85
2021/07/31 11:39:09;;;;;;;9.80;6.28;;;26.10;63.30;;;;;;4983239;28;20414;-85
2021/07/31 11:41:42;;;;;;;8.75;6.55;;;26.20;61.90;;;;;;4984389;28;20015;-85
2021/07/31 11:44:10;;;;;;;8.15;6.60;;;26.20;59.30;;;;;;4988225;28;20057;-84
2021/07/31 11:46:46;;;;;;;7.25;5.78;;;26.30;60.00;;;;;;4990029;28;20384;-85
2021/07/31 11:49:23;;;;;;;8.63;5.47;;;26.40;60.80;;;;;;4988513;28;20069;-84
2021/07/31 11:51:49;;;;;;;7.75;6.60;;;26.50;58.80;;;;;;4988624;28;20026;-85
2021/07/31 11:54:16;;;;;;;7.72;6.78;;;26.50;58.80;;;;;;4989143;28;20065;-87
2021/07/31 11:56:45;;;;;;;9.20;6.82;;;26.70;59.40;;;;;;4992946;28;20026;-86
2021/07/31 11:59:11;;;;;;;6.85;6.00;;;26.80;58.60;;;;;;4992669;28;20060;-85
2021/07/31 12:01:38;;;;;;;9.35;7.03;;;26.80;58.90;;;;;;4992230;28;20491;-84
2021/07/31 12:04:05;;;;;;;8.32;6.57;;;26.90;58.10;;;;;;4991059;28;20026;-84
2021/07/31 12:06:36;;;;;;;6.85;6.18;;;26.90;57.40;;;;;;4983300;28;20488;-84
2021/07/31 12:09:18;;;;;;;8.75;6.40;;;27.00;57.70;;;;;;4989039;28;20110;-84
2021/07/31 12:11:44;;;;;;;8.32;6.72;;;26.90;55.60;;;;;;5005921;28;20026;-84
2021/07/31 12:14:33;;;;;;;7.00;6.28;;;26.90;56.80;;;;;;4990815;28;20038;-84
2021/07/31 12:17:23;;;;;;;6.38;5.32;;;26.90;56.80;;;;;;4990618;28;20057;-84
2021/07/31 12:19:57;;;;;;;7.70;6.80;;;27.00;57.70;;;;;;4990917;28;20034;-84
2021/07/31 12:22:27;;;;;;;7.05;5.50;;;27.00;57.50;;;;;;4989399;28;20015;-84
2021/07/31 12:25:15;;;;;;;6.43;5.72;;;26.80;55.70;;;;;;4989821;28;20106;-84
2021/07/31 12:27:55;;;;;;;6.60;5.72;;;26.80;57.10;;;;;;4991541;28;20117;-84
2021/07/31 12:30:34;;;;;;;6.53;5.50;;;26.80;56.70;;;;;;4992266;28;20034;-84
2021/07/31 12:33:02;;;;;;;6.80;6.10;;;26.90;57.50;;;;;;4991479;28;20030;-84
2021/07/31 12:35:37;;;;;;;8.02;6.45;;;26.90;58.90;;;;;;4992829;28;20027;-84
2021/07/31 12:38:08;;;;;;;7.72;6.97;;;27.00;59.40;;;;;;4973165;28;20046;-84
2021/07/31 12:40:35;;;;;;;6.68;5.97;;;27.10;60.20;;;;;;4973391;28;20031;-84
2021/07/31 12:43:06;;;;;;;8.00;6.35;;;27.10;58.70;;;;;;4973197;28;20068;-84